createdAt,value
2022-11-08T00:02:05.151Z,11.50
2022-11-08T00:04:31.936Z,11.46
2022-11-08T00:07:16.731Z,11.42
2022-11-08T00:10:01.771Z,11.39
2022-11-08T00:12:46.569Z,11.40
2022-11-08T00:15:13.009Z,11.39
2022-11-08T00:17:39.294Z,11.36
2022-11-08T00:20:06.696Z,11.30
2022-11-08T00:22:32.793Z,11.39
2022-11-08T00:24:59.290Z,11.32
2022-11-08T00:27:25.673Z,11.32
2022-11-08T00:29:52.678Z,11.30
2022-11-08T00:32:21.905Z,11.32
2022-11-08T00:34:48.711Z,11.31
2022-11-08T00:37:16.460Z,11.39
2022-11-08T00:39:42.857Z,11.36
2022-11-08T00:42:09.869Z,11.30
2022-11-08T00:44:36.690Z,11.23
2022-11-08T00:47:03.378Z,11.14
2022-11-08T00:49:29.981Z,11.18
2022-11-08T00:51:56.232Z,11.10
2022-11-08T00:54:23.124Z,11.12
2022-11-08T00:56:49.661Z,11.11
2022-11-08T00:59:18.324Z,11.09
2022-11-08T01:01:46.123Z,11.12
2022-11-08T01:04:18.644Z,11.04
2022-11-08T01:06:45.296Z,10.95
2022-11-08T01:09:12.073Z,10.94
2022-11-08T01:11:38.857Z,10.88
2022-11-08T01:14:05.385Z,10.92
2022-11-08T01:16:32.787Z,10.85
2022-11-08T01:19:00.365Z,10.89
2022-11-08T01:21:26.973Z,10.67
2022-11-08T01:23:54.213Z,10.56
2022-11-08T01:26:25.831Z,10.48
2022-11-08T01:28:53.113Z,10.46
2022-11-08T01:31:21.616Z,10.49
2022-11-08T01:33:51.600Z,10.54
2022-11-08T01:36:21.814Z,10.46
2022-11-08T01:38:48.840Z,10.51
2022-11-08T01:41:16.747Z,10.57
2022-11-08T01:43:46.069Z,10.51
2022-11-08T01:46:27.115Z,10.54
2022-11-08T01:49:27.864Z,10.46
2022-11-08T01:51:57.479Z,10.34
2022-11-08T01:54:31.593Z,10.29
2022-11-08T01:57:00.886Z,10.18
2022-11-08T01:59:28.335Z,10.12
2022-11-08T02:01:55.652Z,10.01
2022-11-08T02:04:22.273Z,9.92
2022-11-08T02:06:49.464Z,9.94
2022-11-08T02:09:18.026Z,10.05
2022-11-08T02:11:46.864Z,9.94
2022-11-08T02:14:13.366Z,10.05
2022-11-08T02:16:39.454Z,10.00
2022-11-08T02:19:12.232Z,9.96
2022-11-08T02:21:51.735Z,9.83
2022-11-08T02:24:18.468Z,9.86
2022-11-08T02:26:46.113Z,9.92
2022-11-08T02:29:30.680Z,9.75
2022-11-08T02:31:58.127Z,9.82
2022-11-08T02:34:31.884Z,9.83
2022-11-08T02:36:59.205Z,9.74
2022-11-08T02:39:25.648Z,9.77
2022-11-08T02:41:51.958Z,9.52
2022-11-08T02:44:18.461Z,9.42
2022-11-08T02:46:44.659Z,9.37
2022-11-08T02:49:11.046Z,9.31
2022-11-08T02:51:37.348Z,9.29
2022-11-08T02:54:03.807Z,9.25
2022-11-08T02:56:30.591Z,9.12
2022-11-08T02:58:56.985Z,9.08
2022-11-08T03:01:23.108Z,9.08
2022-11-08T03:03:49.533Z,9.00
2022-11-08T03:06:15.692Z,8.99
2022-11-08T03:08:42.125Z,8.88
2022-11-08T03:11:08.256Z,8.91
2022-11-08T03:13:34.636Z,8.87
2022-11-08T03:16:04.755Z,8.83
2022-11-08T03:18:31.649Z,8.80
2022-11-08T03:20:59.031Z,8.73
2022-11-08T03:23:25.440Z,8.75
2022-11-08T03:25:51.629Z,8.68
2022-11-08T03:28:22.731Z,8.77
2022-11-08T03:30:51.375Z,8.69
2022-11-08T03:33:18.196Z,8.73
2022-11-08T03:35:44.280Z,8.82
2022-11-08T03:38:10.725Z,8.90
2022-11-08T03:40:36.807Z,8.72
2022-11-08T03:43:03.224Z,8.92
2022-11-08T03:45:29.503Z,8.87
2022-11-08T03:47:55.905Z,8.97
2022-11-08T03:50:22.102Z,8.94
2022-11-08T03:52:51.003Z,8.93
2022-11-08T03:55:18.940Z,9.07
2022-11-08T03:57:47.339Z,9.15
2022-11-08T04:00:16.254Z,9.24
2022-11-08T04:02:43.264Z,9.17
2022-11-08T04:05:11.574Z,9.03
2022-11-08T04:07:38.223Z,8.99
2022-11-08T04:10:05.554Z,9.01
2022-11-08T04:12:50.603Z,9.11
2022-11-08T04:15:21.651Z,8.95
2022-11-08T04:18:13.297Z,8.78
2022-11-08T04:20:59.284Z,8.72
2022-11-08T04:23:26.472Z,8.64
2022-11-08T04:26:00.151Z,8.50
2022-11-08T04:28:31.927Z,8.45
2022-11-08T04:31:02.219Z,8.34
2022-11-08T04:33:29.478Z,8.26
2022-11-08T04:36:01.043Z,8.23
2022-11-08T04:38:27.407Z,8.22
2022-11-08T04:40:59.028Z,8.29
2022-11-08T04:43:25.394Z,8.33
2022-11-08T04:45:51.477Z,8.59
2022-11-08T04:48:18.144Z,8.64
2022-11-08T04:50:44.420Z,8.75
2022-11-08T04:53:10.824Z,8.73
2022-11-08T04:55:36.993Z,8.73
2022-11-08T04:58:03.477Z,8.57
2022-11-08T05:00:29.838Z,8.65
2022-11-08T05:02:56.345Z,8.81
2022-11-08T05:05:22.512Z,9.03
2022-11-08T05:07:48.945Z,9.00
2022-11-08T05:10:15.168Z,9.00
2022-11-08T05:12:41.573Z,9.00
2022-11-08T05:15:08.116Z,9.03
2022-11-08T05:17:34.884Z,8.91
2022-11-08T05:20:19.900Z,8.94
2022-11-08T05:23:05.007Z,8.98
2022-11-08T05:25:31.352Z,8.88
2022-11-08T05:27:57.722Z,8.84
2022-11-08T05:30:23.837Z,8.83
2022-11-08T05:32:52.067Z,8.77
2022-11-08T05:35:20.855Z,8.65
2022-11-08T05:37:47.305Z,8.50
2022-11-08T05:40:13.811Z,8.50
2022-11-08T05:42:40.334Z,8.52
2022-11-08T05:45:09.504Z,8.49
2022-11-08T05:47:37.357Z,8.38
2022-11-08T05:50:04.138Z,8.23
2022-11-08T05:52:30.941Z,8.26
2022-11-08T05:54:57.260Z,8.38
2022-11-08T05:57:23.630Z,8.36
2022-11-08T05:59:49.852Z,8.45
2022-11-08T06:02:17.506Z,8.60
2022-11-08T06:04:43.852Z,8.63
2022-11-08T06:07:10.386Z,8.90
2022-11-08T06:09:36.609Z,8.97
2022-11-08T06:12:03.307Z,8.99
2022-11-08T06:14:29.406Z,8.99
2022-11-08T06:16:55.852Z,8.96
2022-11-08T06:19:21.995Z,8.95
2022-11-08T06:21:48.483Z,8.87
2022-11-08T06:24:17.620Z,8.78
2022-11-08T06:26:44.164Z,8.86
2022-11-08T06:29:10.605Z,8.91
2022-11-08T06:31:40.596Z,8.93
2022-11-08T06:34:10.188Z,9.21
2022-11-08T06:36:36.796Z,9.29
2022-11-08T06:39:03.459Z,9.31
2022-11-08T06:41:30.177Z,9.37
2022-11-08T06:43:56.354Z,9.45
2022-11-08T06:46:22.945Z,9.44
2022-11-08T06:48:49.511Z,9.61
2022-11-08T06:51:16.090Z,9.60
2022-11-08T06:53:42.684Z,9.58
2022-11-08T06:56:09.514Z,9.55
2022-11-08T06:58:35.770Z,9.48
2022-11-08T07:01:04.229Z,9.45
2022-11-08T07:03:31.009Z,9.54
2022-11-08T07:05:57.465Z,9.68
2022-11-08T07:08:24.478Z,9.82
2022-11-08T07:10:51.164Z,9.88
2022-11-08T07:13:18.414Z,9.91
2022-11-08T07:15:46.995Z,9.98
2022-11-08T07:18:14.884Z,10.00
2022-11-08T07:20:41.763Z,10.01
2022-11-08T07:23:09.158Z,10.12
2022-11-08T07:25:36.507Z,10.22
2022-11-08T07:28:05.166Z,10.38
2022-11-08T07:30:32.436Z,10.52
2022-11-08T07:32:58.789Z,10.59
2022-11-08T07:35:29.618Z,10.67
2022-11-08T07:37:56.059Z,10.79
2022-11-08T07:40:22.765Z,10.84
2022-11-08T07:45:35.310Z,10.94
2022-11-08T07:48:09.558Z,11.06
2022-11-08T07:50:39.121Z,11.13
2022-11-08T07:53:05.360Z,11.26
2022-11-08T07:55:35.473Z,11.32
2022-11-08T07:58:01.559Z,11.38
2022-11-08T08:00:29.159Z,11.41
2022-11-08T08:02:59.527Z,11.57
2022-11-08T08:05:28.495Z,11.60
2022-11-08T08:07:59.350Z,11.70
2022-11-08T08:10:27.345Z,11.82
2022-11-08T08:12:55.046Z,11.88
2022-11-08T08:15:22.633Z,11.94
2022-11-08T08:17:49.026Z,11.99
2022-11-08T08:20:15.678Z,11.99
2022-11-08T08:22:49.919Z,12.10
2022-11-08T08:25:17.834Z,12.18
2022-11-08T08:27:51.465Z,12.24
2022-11-08T08:30:19.150Z,12.34
2022-11-08T08:32:53.466Z,12.42
2022-11-08T08:35:24.309Z,12.45
2022-11-08T08:37:50.588Z,12.55
2022-11-08T08:40:17.090Z,12.68
2022-11-08T08:42:43.677Z,12.72
2022-11-08T08:45:14.879Z,12.78
2022-11-08T08:47:41.726Z,12.84
2022-11-08T08:50:08.620Z,12.93
2022-11-08T08:52:35.096Z,12.97
2022-11-08T08:55:01.977Z,13.04
2022-11-08T08:57:28.480Z,13.08
2022-11-08T09:02:42.868Z,13.22
2022-11-08T09:05:10.927Z,13.29
2022-11-08T09:07:37.664Z,13.33
2022-11-08T09:10:05.357Z,13.35
2022-11-08T09:12:32.132Z,13.34
2022-11-08T09:14:58.755Z,13.42
2022-11-08T09:17:27.504Z,13.54
2022-11-08T09:19:57.151Z,13.62
2022-11-08T09:22:23.991Z,13.71
2022-11-08T09:24:50.666Z,13.78
2022-11-08T09:27:16.938Z,13.71
2022-11-08T09:29:43.490Z,13.75
2022-11-08T09:32:10.584Z,13.80
2022-11-08T09:34:37.239Z,13.85
2022-11-08T09:37:03.396Z,13.89
2022-11-08T09:39:30.323Z,14.00
2022-11-08T09:42:14.130Z,14.08
2022-11-08T09:44:52.398Z,14.09
2022-11-08T09:47:20.716Z,14.09
2022-11-08T09:49:54.176Z,14.04
2022-11-08T09:52:24.256Z,14.13
2022-11-08T09:54:55.081Z,14.22
2022-11-08T09:57:28.811Z,14.29
2022-11-08T10:00:03.921Z,14.40
2022-11-08T10:02:33.043Z,14.47
2022-11-08T10:05:03.396Z,14.48
2022-11-08T10:07:51.764Z,14.68
2022-11-08T10:10:33.684Z,14.71
2022-11-08T10:13:27.532Z,14.83
2022-11-08T10:16:16.383Z,14.85
2022-11-08T10:18:42.399Z,14.90
2022-11-08T10:21:46.352Z,14.87
2022-11-08T10:24:46.965Z,14.83
2022-11-08T10:27:19.355Z,14.89
2022-11-08T10:29:45.923Z,14.92
2022-11-08T10:32:21.288Z,14.93
2022-11-08T10:34:57.830Z,14.96
2022-11-08T10:37:24.819Z,14.96
2022-11-08T10:39:55.753Z,15.02
2022-11-08T10:42:24.804Z,15.08
2022-11-08T10:44:51.147Z,15.09
2022-11-08T10:47:23.172Z,15.07
2022-11-08T10:49:50.412Z,15.08
2022-11-08T10:52:59.343Z,15.15
2022-11-08T10:55:37.723Z,15.20
2022-11-08T10:58:25.242Z,15.16
2022-11-08T11:01:05.295Z,15.26
2022-11-08T11:03:32.351Z,15.25
2022-11-08T11:06:26.753Z,15.25
2022-11-08T11:09:00.047Z,15.31
2022-11-08T11:11:32.393Z,15.36
2022-11-08T11:14:05.572Z,15.34
2022-11-08T11:16:31.797Z,15.37
2022-11-08T11:19:01.361Z,15.41
2022-11-08T11:21:35.397Z,15.45
2022-11-08T11:24:21.000Z,15.51
2022-11-08T11:26:56.415Z,15.55
2022-11-08T11:29:27.533Z,15.59
2022-11-08T11:31:55.085Z,15.65
2022-11-08T11:34:35.283Z,15.67
2022-11-08T11:37:07.811Z,15.66
2022-11-08T11:40:05.288Z,15.71
2022-11-08T11:42:46.469Z,15.70
2022-11-08T11:45:36.634Z,15.74
2022-11-08T11:48:16.601Z,15.77
2022-11-08T11:50:48.834Z,15.73
2022-11-08T11:53:37.541Z,15.81
2022-11-08T11:56:27.279Z,15.84
2022-11-08T11:59:12.174Z,15.84
2022-11-08T12:02:20.594Z,15.86
2022-11-08T12:05:05.672Z,15.92
2022-11-08T12:07:38.114Z,15.94
2022-11-08T12:10:19.542Z,15.96
2022-11-08T12:13:20.147Z,15.96
2022-11-08T12:15:56.778Z,15.94
2022-11-08T12:18:42.051Z,15.99
2022-11-08T12:21:21.442Z,16.00
2022-11-08T12:24:34.559Z,15.95
2022-11-08T12:27:29.604Z,15.93
2022-11-08T12:30:14.708Z,16.02
2022-11-08T12:32:49.794Z,16.08
2022-11-08T12:35:54.180Z,16.04
2022-11-08T12:38:55.971Z,16.08
2022-11-08T12:41:57.609Z,16.10
2022-11-08T12:44:54.261Z,16.09
2022-11-08T12:47:26.760Z,16.12
2022-11-08T12:50:20.850Z,16.07
2022-11-08T12:53:21.289Z,16.13
2022-11-08T12:55:49.059Z,16.13
2022-11-08T12:58:24.719Z,16.17
2022-11-08T13:00:56.271Z,16.14
2022-11-08T13:03:37.768Z,16.13
2022-11-08T13:06:36.418Z,16.24
2022-11-08T13:09:18.432Z,16.26
2022-11-08T13:11:50.814Z,16.24
2022-11-08T13:14:19.004Z,16.30
2022-11-08T13:17:17.045Z,16.30
2022-11-08T13:19:53.096Z,16.25
2022-11-08T13:22:28.914Z,16.23
2022-11-08T13:24:57.627Z,16.16
2022-11-08T13:27:38.488Z,16.13
2022-11-08T13:30:10.837Z,16.08
2022-11-08T13:32:43.105Z,16.05
2022-11-08T13:35:32.074Z,16.02
2022-11-08T13:38:26.438Z,15.92
2022-11-08T13:41:14.536Z,15.94
2022-11-08T13:43:41.031Z,15.97
2022-11-08T13:46:19.664Z,15.97
2022-11-08T13:48:58.142Z,15.98
2022-11-08T13:51:42.092Z,15.94
2022-11-08T13:54:20.480Z,15.88
2022-11-08T13:57:00.257Z,15.84
2022-11-08T13:59:29.594Z,15.84
2022-11-08T14:01:59.389Z,15.79
2022-11-08T14:04:34.985Z,15.74
2022-11-08T14:07:25.529Z,15.69
2022-11-08T14:10:19.736Z,15.62
2022-11-08T14:13:13.877Z,15.57
2022-11-08T14:16:06.287Z,15.51
2022-11-08T14:18:34.734Z,15.48
2022-11-08T14:21:04.454Z,15.50
2022-11-08T14:23:34.889Z,15.45
2022-11-08T14:26:13.427Z,15.38
2022-11-08T14:28:42.759Z,15.35
2022-11-08T14:31:28.518Z,15.25
2022-11-08T14:33:56.270Z,15.18
2022-11-08T14:36:24.389Z,15.19
2022-11-08T14:39:12.736Z,15.11
2022-11-08T14:41:43.987Z,15.04
2022-11-08T14:44:14.148Z,14.99
2022-11-08T14:46:40.776Z,14.97
2022-11-08T14:49:15.034Z,14.91
2022-11-08T14:51:42.818Z,14.89
2022-11-08T14:54:21.548Z,14.81
2022-11-08T14:56:49.613Z,14.71
2022-11-08T14:59:16.829Z,14.67
2022-11-08T15:01:46.937Z,14.62
2022-11-08T15:04:17.540Z,14.56
2022-11-08T15:06:49.286Z,14.49
2022-11-08T15:09:36.539Z,14.37
2022-11-08T15:12:06.969Z,14.32
2022-11-08T15:14:36.461Z,14.22
2022-11-08T15:17:34.224Z,14.18
2022-11-08T15:20:06.827Z,14.06
2022-11-08T15:22:35.540Z,13.95
2022-11-08T15:25:18.238Z,13.86
2022-11-08T15:27:57.487Z,13.78
2022-11-08T15:30:30.206Z,13.70
2022-11-08T15:32:56.696Z,13.68
2022-11-08T15:35:29.559Z,13.53
2022-11-08T15:38:06.283Z,13.51
2022-11-08T15:40:52.839Z,13.41
2022-11-08T15:43:31.570Z,13.36
2022-11-08T15:46:00.085Z,13.35
2022-11-08T15:48:27.354Z,13.33
2022-11-08T15:50:56.100Z,13.22
2022-11-08T15:53:24.303Z,13.18
2022-11-08T15:55:59.264Z,13.14
2022-11-08T15:58:31.584Z,13.08
2022-11-08T16:01:00.906Z,13.08
2022-11-08T16:03:28.508Z,13.01
2022-11-08T16:05:55.814Z,13.05
2022-11-08T16:08:22.779Z,13.15
2022-11-08T16:10:52.296Z,13.05
2022-11-08T16:13:25.013Z,13.03
2022-11-08T16:15:51.472Z,13.01
2022-11-08T16:18:19.023Z,13.00
2022-11-08T16:20:45.934Z,12.96
2022-11-08T16:23:12.937Z,12.97
2022-11-08T16:25:44.811Z,12.99
2022-11-08T16:28:17.422Z,12.94
2022-11-08T16:30:46.228Z,12.94
2022-11-08T16:33:20.409Z,12.93
2022-11-08T16:35:47.940Z,12.91
2022-11-08T16:38:14.527Z,12.89
2022-11-08T16:41:10.061Z,12.85
2022-11-08T16:43:36.535Z,12.82
2022-11-08T16:46:06.730Z,12.76
2022-11-08T16:48:35.892Z,12.80
2022-11-08T16:51:05.109Z,12.72
2022-11-08T16:53:32.323Z,12.73
2022-11-08T16:55:58.919Z,12.72
2022-11-08T16:58:26.109Z,12.69
2022-11-08T17:00:52.697Z,12.76
2022-11-08T17:03:21.260Z,12.71
2022-11-08T17:05:48.626Z,12.72
2022-11-08T17:08:15.070Z,12.67
2022-11-08T17:10:42.504Z,12.68
2022-11-08T17:13:17.135Z,12.67
2022-11-08T17:15:44.200Z,12.63
2022-11-08T17:18:13.319Z,12.62
2022-11-08T17:20:39.899Z,12.64
2022-11-08T17:23:07.667Z,12.66
2022-11-08T17:25:36.304Z,12.66
2022-11-08T17:28:03.737Z,12.63
2022-11-08T17:30:30.307Z,12.64
2022-11-08T17:32:56.843Z,12.59
2022-11-08T17:35:23.747Z,12.63
2022-11-08T17:37:50.052Z,12.60
2022-11-08T17:40:16.642Z,12.60
2022-11-08T17:42:44.594Z,12.59
2022-11-08T17:45:12.694Z,12.58
2022-11-08T17:47:39.235Z,12.55
2022-11-08T17:50:07.825Z,12.52
2022-11-08T17:52:34.344Z,12.55
2022-11-08T17:55:00.921Z,12.49
2022-11-08T17:57:27.788Z,12.50
2022-11-08T17:59:54.500Z,12.50
2022-11-08T18:02:20.810Z,12.50
2022-11-08T18:04:47.946Z,12.53
2022-11-08T18:07:14.182Z,12.60
2022-11-08T18:09:40.919Z,12.60
2022-11-08T18:12:08.629Z,12.65
2022-11-08T18:14:35.570Z,12.64
2022-11-08T18:17:03.831Z,12.64
2022-11-08T18:19:30.615Z,12.65
2022-11-08T18:21:57.032Z,12.61
2022-11-08T18:24:23.755Z,12.61
2022-11-08T18:26:50.303Z,12.61
2022-11-08T18:29:16.939Z,12.60
2022-11-08T18:31:43.094Z,12.60
2022-11-08T18:34:09.678Z,12.57
2022-11-08T18:36:35.929Z,12.55
2022-11-08T18:39:03.115Z,12.61
2022-11-08T18:41:32.133Z,12.64
2022-11-08T18:43:59.810Z,12.61
2022-11-08T18:46:28.774Z,12.57
2022-11-08T18:48:55.429Z,12.59
2022-11-08T18:51:23.139Z,12.56
2022-11-08T18:53:51.743Z,12.55
2022-11-08T18:56:18.925Z,12.57
2022-11-08T18:58:45.563Z,12.51
2022-11-08T19:01:14.129Z,12.50
2022-11-08T19:03:41.546Z,12.51
2022-11-08T19:06:08.315Z,12.44
2022-11-08T19:08:36.163Z,12.44
2022-11-08T19:11:13.879Z,12.43
2022-11-08T19:13:41.134Z,12.49
2022-11-08T19:16:16.144Z,12.54
2022-11-08T19:18:44.123Z,12.47
2022-11-08T19:21:22.031Z,12.51
2022-11-08T19:23:50.088Z,12.48
2022-11-08T19:26:22.107Z,12.35
2022-11-08T19:28:50.624Z,12.37
2022-11-08T19:31:19.323Z,12.35
2022-11-08T19:33:46.998Z,12.30
2022-11-08T19:36:16.791Z,12.27
2022-11-08T19:38:44.461Z,12.30
2022-11-08T19:41:14.115Z,12.23
2022-11-08T19:43:42.330Z,12.18
2022-11-08T19:46:12.856Z,12.12
2022-11-08T19:48:42.560Z,12.10
2022-11-08T19:51:26.415Z,12.12
2022-11-08T19:53:58.877Z,12.14
2022-11-08T19:56:43.432Z,12.10
2022-11-08T19:59:14.140Z,12.05
2022-11-08T20:01:40.430Z,11.99
2022-11-08T20:04:09.359Z,11.96
2022-11-08T20:06:36.693Z,11.89
2022-11-08T20:09:04.465Z,11.88
2022-11-08T20:11:33.402Z,11.86
2022-11-08T20:14:00.487Z,11.79
2022-11-08T20:16:29.277Z,11.75
2022-11-08T20:19:04.480Z,11.85
2022-11-08T20:21:31.080Z,11.86
2022-11-08T20:23:57.401Z,11.79
2022-11-08T20:26:25.482Z,11.78
2022-11-08T20:28:57.101Z,11.83
2022-11-08T20:31:25.169Z,11.81
2022-11-08T20:33:53.154Z,11.75
2022-11-08T20:36:22.529Z,11.71
2022-11-08T20:38:49.993Z,11.73
2022-11-08T20:41:17.635Z,11.72
2022-11-08T20:43:45.853Z,11.66
2022-11-08T20:46:18.305Z,11.70
2022-11-08T20:48:50.847Z,11.72
2022-11-08T20:51:20.110Z,11.72
2022-11-08T20:53:49.656Z,11.81
2022-11-08T20:56:18.991Z,11.79
2022-11-08T20:58:46.816Z,11.87
2022-11-08T21:01:17.209Z,11.91
2022-11-08T21:03:44.995Z,11.98
2022-11-08T21:06:14.552Z,11.92
2022-11-08T21:11:29.659Z,11.96
2022-11-08T21:13:56.232Z,11.88
2022-11-08T21:16:31.903Z,11.89
2022-11-08T21:19:02.071Z,11.84
2022-11-08T21:21:28.497Z,11.83
2022-11-08T21:23:54.956Z,11.82
2022-11-08T21:26:22.155Z,11.83
2022-11-08T21:28:48.836Z,11.81
2022-11-08T21:31:17.040Z,11.74
2022-11-08T21:33:44.381Z,11.76
2022-11-08T21:36:12.000Z,11.71
2022-11-08T21:38:39.820Z,11.61
2022-11-08T21:41:08.069Z,11.66
2022-11-08T21:43:42.426Z,11.60
2022-11-08T21:46:23.567Z,11.54
2022-11-08T21:48:55.276Z,11.52
2022-11-08T21:51:21.810Z,11.51
2022-11-08T21:53:56.309Z,11.48
2022-11-08T21:56:24.289Z,11.41
2022-11-08T21:58:50.924Z,11.46
2022-11-08T22:01:17.917Z,11.43
2022-11-08T22:03:45.618Z,11.42
2022-11-08T22:06:12.485Z,11.42
2022-11-08T22:08:38.944Z,11.48
2022-11-08T22:11:05.276Z,11.40
2022-11-08T22:13:32.070Z,11.45
2022-11-08T22:15:58.275Z,11.44
2022-11-08T22:18:36.750Z,11.38
2022-11-08T22:21:29.412Z,11.44
2022-11-08T22:23:56.079Z,11.43
2022-11-08T22:26:22.218Z,11.44
2022-11-08T22:28:48.381Z,11.44
2022-11-08T22:31:14.796Z,11.47
2022-11-08T22:33:41.202Z,11.44
2022-11-08T22:36:08.137Z,11.43
2022-11-08T22:38:34.334Z,11.51
2022-11-08T22:41:00.901Z,11.50
2022-11-08T22:43:27.119Z,11.39
2022-11-08T22:45:53.604Z,11.41
2022-11-08T22:48:20.019Z,11.35
2022-11-08T22:50:46.827Z,11.31
2022-11-08T22:53:13.095Z,11.30
2022-11-08T22:55:39.604Z,11.35
2022-11-08T22:58:05.730Z,11.34
2022-11-08T23:00:32.168Z,11.30
2022-11-08T23:02:58.299Z,11.26
2022-11-08T23:05:24.737Z,11.19
2022-11-08T23:07:51.000Z,11.16
2022-11-08T23:10:17.603Z,11.19
2022-11-08T23:13:02.450Z,11.17
2022-11-08T23:15:50.458Z,11.05
2022-11-08T23:18:16.717Z,11.14
2022-11-08T23:21:01.693Z,11.16
2022-11-08T23:23:46.588Z,11.23
2022-11-08T23:26:13.113Z,11.31
2022-11-08T23:28:57.778Z,11.28
2022-11-08T23:31:36.196Z,11.31
2022-11-08T23:34:03.684Z,11.27
2022-11-08T23:36:30.257Z,11.29
2022-11-08T23:38:57.482Z,11.43
2022-11-08T23:41:43.017Z,11.36
2022-11-08T23:44:24.368Z,11.37
2022-11-08T23:46:59.485Z,11.30
2022-11-08T23:49:26.118Z,11.29
2022-11-08T23:51:53.242Z,11.38
2022-11-08T23:54:19.653Z,11.33
2022-11-08T23:56:46.577Z,11.32
2022-11-08T23:59:14.163Z,11.28
